createdAt,value
2019-05-03T00:00:38.782Z,22.04
2019-05-03T00:01:38.783Z,22.08
2019-05-03T00:02:38.761Z,22.06
2019-05-03T00:03:38.785Z,22.04
2019-05-03T00:04:38.739Z,22.04
2019-05-03T00:05:38.730Z,21.98
2019-05-03T00:06:38.720Z,22.02
2019-05-03T00:07:38.705Z,22.06
2019-05-03T00:08:49.702Z,21.94
2019-05-03T00:09:38.692Z,21.94
2019-05-03T00:10:38.675Z,22.01
2019-05-03T00:11:38.661Z,21.99
2019-05-03T00:12:38.652Z,22.04
2019-05-03T00:13:38.642Z,22.05
2019-05-03T00:14:38.647Z,22.01
2019-05-03T00:15:38.618Z,21.86
2019-05-03T00:16:38.606Z,21.90
2019-05-03T00:17:38.602Z,21.85
2019-05-03T00:18:38.585Z,21.94
2019-05-03T00:19:38.579Z,21.90
2019-05-03T00:20:38.586Z,21.86
2019-05-03T00:21:38.553Z,21.94
2019-05-03T00:22:38.543Z,21.89
2019-05-03T00:23:38.533Z,21.93
2019-05-03T00:24:38.522Z,21.91
2019-05-03T00:25:38.514Z,21.93
2019-05-03T00:26:38.513Z,21.91
2019-05-03T00:27:38.497Z,21.99
2019-05-03T00:28:38.485Z,21.98
2019-05-03T00:29:38.473Z,21.98
2019-05-03T00:30:38.464Z,22.01
2019-05-03T00:31:38.467Z,21.89
2019-05-03T00:32:38.434Z,22.06
2019-05-03T00:33:38.427Z,22.04
2019-05-03T00:34:38.416Z,21.90
2019-05-03T00:35:38.404Z,21.90
2019-05-03T00:36:38.393Z,21.90
2019-05-03T00:37:38.455Z,21.93
2019-05-03T00:38:38.376Z,21.90
2019-05-03T00:39:49.301Z,21.91
2019-05-03T00:40:38.354Z,21.85
2019-05-03T00:41:38.342Z,21.94
2019-05-03T00:42:38.334Z,21.91
2019-05-03T00:43:38.361Z,21.83
2019-05-03T00:44:38.312Z,21.91
2019-05-03T00:45:38.293Z,21.86
2019-05-03T00:46:38.284Z,21.90
2019-05-03T00:47:38.277Z,21.93
2019-05-03T00:48:38.262Z,21.96
2019-05-03T00:49:38.299Z,21.90
2019-05-03T00:50:38.241Z,21.86
2019-05-03T00:51:38.232Z,21.93
2019-05-03T00:52:38.225Z,21.93
2019-05-03T00:53:38.215Z,21.89
2019-05-03T00:54:38.202Z,21.91
2019-05-03T00:55:38.231Z,21.94
2019-05-03T00:56:38.178Z,21.91
2019-05-03T00:57:38.167Z,21.90
2019-05-03T00:58:38.155Z,21.90
2019-05-03T00:59:38.149Z,22.01
2019-05-03T01:00:38.133Z,21.91
2019-05-03T01:01:38.138Z,21.91
2019-05-03T01:02:38.110Z,21.90
2019-05-03T01:03:38.102Z,21.91
2019-05-03T01:04:38.089Z,21.83
2019-05-03T01:05:38.117Z,21.86
2019-05-03T01:06:38.068Z,21.86
2019-05-03T01:07:38.059Z,21.89
2019-05-03T01:08:38.051Z,21.82
2019-05-03T01:09:38.038Z,21.91
2019-05-03T01:10:49.305Z,21.81
2019-05-03T01:11:38.014Z,21.79
2019-05-03T01:12:38.016Z,21.81
2019-05-03T01:13:37.992Z,21.81
2019-05-03T01:14:37.988Z,21.86
2019-05-03T01:15:37.977Z,21.82
2019-05-03T01:16:38.009Z,21.83
2019-05-03T01:17:37.961Z,21.83
2019-05-03T01:18:37.945Z,21.98
2019-05-03T01:19:37.930Z,21.91
2019-05-03T01:20:37.919Z,21.91
2019-05-03T01:21:37.907Z,21.89
2019-05-03T01:22:37.952Z,21.90
2019-05-03T01:23:37.885Z,21.86
2019-05-03T01:24:37.876Z,21.96
2019-05-03T01:25:37.874Z,21.93
2019-05-03T01:26:37.855Z,21.93
2019-05-03T01:27:37.850Z,21.93
2019-05-03T01:28:37.868Z,21.93
2019-05-03T01:29:37.828Z,21.86
2019-05-03T01:30:37.813Z,21.91
2019-05-03T01:31:37.808Z,21.94
2019-05-03T01:32:37.792Z,21.89
2019-05-03T01:33:37.786Z,21.85
2019-05-03T01:34:37.810Z,21.83
2019-05-03T01:35:37.765Z,21.83
2019-05-03T01:36:37.751Z,21.82
2019-05-03T01:37:37.740Z,21.83
2019-05-03T01:38:37.730Z,21.89
2019-05-03T01:39:37.720Z,21.77
2019-05-03T01:40:37.743Z,21.91
2019-05-03T01:41:47.716Z,21.79
2019-05-03T01:42:37.681Z,21.86
2019-05-03T01:43:37.675Z,21.79
2019-05-03T01:44:37.660Z,21.85
2019-05-03T01:45:37.653Z,21.89
2019-05-03T01:46:37.686Z,21.86
2019-05-03T01:47:37.634Z,21.91
2019-05-03T01:48:37.617Z,21.83
2019-05-03T01:49:37.607Z,21.82
2019-05-03T01:50:37.606Z,21.90
2019-05-03T01:51:37.587Z,21.90
2019-05-03T01:52:37.587Z,21.77
2019-05-03T01:53:37.564Z,21.90
2019-05-03T01:54:37.553Z,21.79
2019-05-03T01:55:45.959Z,21.82
2019-05-03T01:56:38.535Z,21.82
2019-05-03T01:57:37.543Z,21.90
2019-05-03T01:58:37.512Z,21.85
2019-05-03T01:59:37.499Z,21.85
2019-05-03T02:00:37.498Z,21.91
2019-05-03T02:01:37.485Z,21.81
2019-05-03T02:02:37.473Z,21.90
2019-05-03T02:03:37.499Z,21.90
2019-05-03T02:04:37.449Z,21.83
2019-05-03T02:05:37.448Z,21.90
2019-05-03T02:06:37.432Z,21.83
2019-05-03T02:07:37.413Z,21.85
2019-05-03T02:08:37.403Z,21.93
2019-05-03T02:09:37.432Z,21.77
2019-05-03T02:10:37.384Z,21.85
2019-05-03T02:11:37.371Z,21.89
2019-05-03T02:12:47.799Z,21.85
2019-05-03T02:13:37.356Z,21.89
2019-05-03T02:14:37.345Z,21.89
2019-05-03T02:15:37.372Z,21.83
2019-05-03T02:16:37.317Z,21.89
2019-05-03T02:17:37.310Z,21.79
2019-05-03T02:18:37.301Z,21.90
2019-05-03T02:19:37.284Z,21.85
2019-05-03T02:20:37.275Z,21.83
2019-05-03T02:21:37.309Z,21.82
2019-05-03T02:22:37.254Z,21.83
2019-05-03T02:23:37.247Z,21.89
2019-05-03T02:24:37.235Z,21.86
2019-05-03T02:25:37.221Z,21.81
2019-05-03T02:26:37.217Z,21.79
2019-05-03T02:27:37.239Z,21.79
2019-05-03T02:28:37.194Z,21.79
2019-05-03T02:29:37.185Z,21.77
2019-05-03T02:30:37.181Z,21.81
2019-05-03T02:31:37.157Z,21.79
2019-05-03T02:32:37.147Z,21.89
2019-05-03T02:33:37.158Z,21.77
2019-05-03T02:34:37.126Z,21.77
2019-05-03T02:35:37.117Z,21.77
2019-05-03T02:36:37.110Z,21.74
2019-05-03T02:37:37.100Z,21.75
2019-05-03T02:38:37.104Z,21.79
2019-05-03T02:39:37.075Z,21.79
2019-05-03T02:40:37.062Z,21.79
2019-05-03T02:41:37.060Z,21.77
2019-05-03T02:42:37.046Z,21.81
2019-05-03T02:43:47.895Z,21.71
2019-05-03T02:44:37.017Z,21.70
2019-05-03T02:45:37.010Z,21.82
2019-05-03T02:46:36.994Z,21.81
2019-05-03T02:47:36.989Z,21.83
2019-05-03T02:48:36.975Z,21.86
2019-05-03T02:49:37.019Z,21.75
2019-05-03T02:50:36.956Z,21.83
2019-05-03T02:51:36.948Z,21.94
2019-05-03T02:52:37.681Z,21.86
2019-05-03T02:53:36.931Z,21.89
2019-05-03T02:54:36.910Z,21.90
2019-05-03T02:55:36.942Z,21.86
2019-05-03T02:56:36.889Z,21.79
2019-05-03T02:57:36.878Z,21.81
2019-05-03T02:58:36.869Z,21.81
2019-05-03T02:59:36.861Z,21.79
2019-05-03T03:00:36.854Z,21.79
2019-05-03T03:01:36.866Z,21.79
2019-05-03T03:02:36.831Z,21.79
2019-05-03T03:03:36.819Z,21.81
2019-05-03T03:04:36.809Z,21.81
2019-05-03T03:05:36.794Z,21.75
2019-05-03T03:06:37.001Z,21.81
2019-05-03T03:07:37.713Z,21.79
2019-05-03T03:08:37.140Z,21.83
2019-05-03T03:09:36.749Z,21.86
2019-05-03T03:10:36.756Z,21.90
2019-05-03T03:11:36.734Z,21.83
2019-05-03T03:12:36.717Z,21.81
2019-05-03T03:13:37.077Z,21.79
2019-05-03T03:14:47.025Z,21.82
2019-05-03T03:15:36.686Z,21.85
2019-05-03T03:16:36.676Z,21.85
2019-05-03T03:17:36.670Z,21.91
2019-05-03T03:18:36.783Z,21.82
2019-05-03T03:19:36.648Z,21.90
2019-05-03T03:20:36.630Z,21.90
2019-05-03T03:21:36.624Z,21.91
2019-05-03T03:22:36.617Z,21.82
2019-05-03T03:23:36.600Z,21.73
2019-05-03T03:24:36.626Z,21.83
2019-05-03T03:25:36.578Z,21.91
2019-05-03T03:26:41.621Z,21.89
2019-05-03T03:27:37.557Z,21.83
2019-05-03T03:28:36.549Z,21.90
2019-05-03T03:29:36.547Z,21.90
2019-05-03T03:30:37.939Z,21.91
2019-05-03T03:31:37.891Z,21.91
2019-05-03T03:32:38.602Z,21.94
2019-05-03T03:33:40.305Z,21.90
2019-05-03T03:34:38.690Z,21.85
2019-05-03T03:35:38.330Z,21.93
2019-05-03T03:36:50.293Z,21.90
2019-05-03T03:37:37.454Z,21.90
2019-05-03T03:38:36.443Z,21.86
2019-05-03T03:39:36.499Z,21.86
2019-05-03T03:40:36.420Z,21.93
2019-05-03T03:41:36.440Z,21.91
2019-05-03T03:42:36.402Z,21.90
2019-05-03T03:43:36.388Z,21.91
2019-05-03T03:44:36.700Z,21.98
2019-05-03T03:45:46.600Z,21.83
2019-05-03T03:46:36.364Z,21.85
2019-05-03T03:47:36.356Z,21.93
2019-05-03T03:48:36.331Z,21.91
2019-05-03T03:49:36.328Z,21.86
2019-05-03T03:50:36.310Z,21.86
2019-05-03T03:51:36.298Z,21.85
2019-05-03T03:52:36.294Z,21.89
2019-05-03T03:53:36.347Z,21.89
2019-05-03T03:54:36.267Z,21.82
2019-05-03T03:55:36.255Z,21.83
2019-05-03T03:56:53.781Z,21.90
2019-05-03T03:57:37.232Z,21.91
2019-05-03T03:58:36.226Z,21.89
2019-05-03T03:59:36.658Z,21.83
2019-05-03T04:00:36.465Z,21.90
2019-05-03T04:01:36.192Z,21.94
2019-05-03T04:02:36.178Z,21.90
2019-05-03T04:03:36.386Z,21.85
2019-05-03T04:04:36.168Z,21.86
2019-05-03T04:05:36.186Z,21.90
2019-05-03T04:06:36.141Z,21.91
2019-05-03T04:07:36.419Z,21.96
2019-05-03T04:08:36.364Z,21.98
2019-05-03T04:09:36.768Z,21.93
2019-05-03T04:10:36.135Z,21.86
2019-05-03T04:11:36.095Z,21.90
2019-05-03T04:12:36.070Z,21.93
2019-05-03T04:13:36.203Z,21.89
2019-05-03T04:14:36.283Z,21.91
2019-05-03T04:15:37.024Z,22.04
2019-05-03T04:16:47.014Z,21.98
2019-05-03T04:17:36.150Z,22.08
2019-05-03T04:18:36.253Z,22.02
2019-05-03T04:19:36.500Z,22.04
2019-05-03T04:20:36.306Z,21.99
2019-05-03T04:21:36.110Z,22.08
2019-05-03T04:22:36.405Z,22.17
2019-05-03T04:23:36.131Z,22.11
2019-05-03T04:24:35.943Z,21.99
2019-05-03T04:25:35.974Z,22.06
2019-05-03T04:26:35.967Z,22.01
2019-05-03T04:27:36.540Z,22.02
2019-05-03T04:28:36.274Z,22.02
2019-05-03T04:29:35.919Z,21.96
2019-05-03T04:30:36.392Z,21.94
2019-05-03T04:31:36.785Z,21.86
2019-05-03T04:32:36.077Z,21.91
2019-05-03T04:33:36.031Z,21.85
2019-05-03T04:34:36.082Z,21.91
2019-05-03T04:35:36.543Z,21.85
2019-05-03T04:36:35.935Z,21.85
2019-05-03T04:37:36.097Z,21.82
2019-05-03T04:38:35.829Z,21.91
2019-05-03T04:39:36.281Z,21.83
2019-05-03T04:40:36.152Z,21.86
2019-05-03T04:41:35.918Z,21.79
2019-05-03T04:42:35.977Z,21.79
2019-05-03T04:43:35.896Z,21.70
2019-05-03T04:44:36.109Z,21.79
2019-05-03T04:45:36.679Z,21.68
2019-05-03T04:46:36.022Z,21.74
2019-05-03T04:47:47.089Z,21.81
2019-05-03T04:48:36.005Z,21.90
2019-05-03T04:49:36.290Z,21.86
2019-05-03T04:50:36.680Z,21.85
2019-05-03T04:51:35.684Z,21.90
2019-05-03T04:52:36.113Z,21.89
2019-05-03T04:53:35.940Z,21.86
2019-05-03T04:54:35.734Z,21.93
2019-05-03T04:55:36.540Z,21.91
2019-05-03T04:56:36.071Z,22.04
2019-05-03T04:57:42.089Z,22.12
2019-05-03T04:58:36.693Z,22.31
2019-05-03T04:59:35.969Z,22.35
2019-05-03T05:00:36.102Z,22.48
2019-05-03T05:01:35.546Z,22.56
2019-05-03T05:02:35.662Z,22.70
2019-05-03T05:03:36.304Z,22.88
2019-05-03T05:04:35.920Z,23.04
2019-05-03T05:05:36.343Z,23.23
2019-05-03T05:06:35.499Z,23.37
2019-05-03T05:07:35.531Z,23.38
2019-05-03T05:08:35.951Z,23.52
2019-05-03T05:09:35.466Z,23.62
2019-05-03T05:10:36.223Z,23.60
2019-05-03T05:11:35.441Z,23.72
2019-05-03T05:12:35.661Z,23.78
2019-05-03T05:13:35.785Z,23.84
2019-05-03T05:14:35.575Z,23.86
2019-05-03T05:15:35.663Z,23.87
2019-05-03T05:16:35.718Z,23.99
2019-05-03T05:17:35.619Z,24.05
2019-05-03T05:18:47.085Z,24.05
2019-05-03T05:19:35.749Z,24.08
2019-05-03T05:20:35.343Z,24.14
2019-05-03T05:21:35.576Z,24.26
2019-05-03T05:22:35.320Z,24.19
2019-05-03T05:23:35.530Z,24.23
2019-05-03T05:24:35.338Z,24.29
2019-05-03T05:25:35.501Z,24.26
2019-05-03T05:26:35.383Z,24.23
2019-05-03T05:27:48.375Z,24.30
2019-05-03T05:28:36.253Z,24.34
2019-05-03T05:29:35.248Z,24.29
2019-05-03T05:30:35.463Z,24.33
2019-05-03T05:31:35.679Z,24.36
2019-05-03T05:32:35.218Z,24.33
2019-05-03T05:33:35.409Z,24.27
2019-05-03T05:34:35.207Z,24.26
2019-05-03T05:35:35.337Z,24.30
2019-05-03T05:36:35.194Z,24.33
2019-05-03T05:37:35.294Z,24.27
2019-05-03T05:38:35.156Z,24.29
2019-05-03T05:39:35.680Z,24.33
2019-05-03T05:40:35.129Z,24.37
2019-05-03T05:41:35.118Z,24.39
2019-05-03T05:42:35.180Z,24.41
2019-05-03T05:43:35.690Z,24.44
2019-05-03T05:44:35.347Z,24.51
2019-05-03T05:45:35.080Z,24.44
2019-05-03T05:46:35.202Z,24.49
2019-05-03T05:47:35.047Z,24.51
2019-05-03T05:48:35.087Z,24.49
2019-05-03T05:49:45.359Z,24.46
2019-05-03T05:50:35.017Z,24.55
2019-05-03T05:51:35.375Z,24.56
2019-05-03T05:52:35.005Z,24.55
2019-05-03T05:53:35.896Z,24.60
2019-05-03T05:54:35.187Z,24.61
2019-05-03T05:55:34.969Z,24.60
2019-05-03T05:56:35.417Z,24.66
2019-05-03T05:57:34.954Z,24.66
2019-05-03T05:58:35.005Z,24.64
2019-05-03T05:59:35.059Z,24.64
2019-05-03T06:00:35.903Z,24.77
2019-05-03T06:01:35.370Z,24.71
2019-05-03T06:02:35.928Z,24.80
2019-05-03T06:03:34.882Z,24.71
2019-05-03T06:04:34.976Z,24.71
2019-05-03T06:05:35.526Z,24.77
2019-05-03T06:06:34.914Z,24.82
2019-05-03T06:07:35.174Z,24.79
2019-05-03T06:08:35.387Z,24.92
2019-05-03T06:09:34.823Z,24.83
2019-05-03T06:10:34.892Z,24.86
2019-05-03T06:11:34.847Z,24.92
2019-05-03T06:12:35.294Z,24.92
2019-05-03T06:13:34.775Z,24.93
2019-05-03T06:14:34.791Z,24.92
2019-05-03T06:15:34.829Z,24.93
2019-05-03T06:16:34.886Z,24.98
2019-05-03T06:17:34.902Z,24.98
2019-05-03T06:18:35.365Z,25.04
2019-05-03T06:19:34.706Z,25.01
2019-05-03T06:20:45.641Z,25.04
2019-05-03T06:21:35.296Z,25.09
2019-05-03T06:22:34.676Z,25.07
2019-05-03T06:23:34.806Z,25.11
2019-05-03T06:24:34.957Z,25.14
2019-05-03T06:25:35.326Z,25.14
2019-05-03T06:26:34.831Z,25.12
2019-05-03T06:27:34.784Z,25.16
2019-05-03T06:28:35.308Z,25.20
2019-05-03T06:29:35.169Z,25.22
2019-05-03T06:30:35.116Z,25.17
2019-05-03T06:31:34.577Z,25.22
2019-05-03T06:32:34.690Z,25.19
2019-05-03T06:33:34.791Z,25.24
2019-05-03T06:34:35.432Z,25.22
2019-05-03T06:35:34.644Z,25.20
2019-05-03T06:36:35.386Z,25.26
2019-05-03T06:37:35.398Z,25.22
2019-05-03T06:38:34.538Z,25.22
2019-05-03T06:39:35.289Z,25.12
2019-05-03T06:40:35.360Z,25.17
2019-05-03T06:41:35.266Z,25.16
2019-05-03T06:42:35.555Z,25.17
2019-05-03T06:43:34.914Z,25.12
2019-05-03T06:44:34.929Z,25.09
2019-05-03T06:45:35.346Z,25.09
2019-05-03T06:46:35.571Z,25.05
2019-05-03T06:47:34.829Z,25.04
2019-05-03T06:48:35.204Z,25.04
2019-05-03T06:49:34.616Z,25.05
2019-05-03T06:50:34.820Z,24.99
2019-05-03T06:51:49.295Z,25.01
2019-05-03T06:52:35.359Z,25.12
2019-05-03T06:53:34.656Z,25.11
2019-05-03T06:54:35.382Z,24.98
2019-05-03T06:55:35.105Z,25.04
2019-05-03T06:56:35.028Z,25.01
2019-05-03T06:57:35.381Z,25.04
2019-05-03T06:58:36.490Z,25.14
2019-05-03T06:59:35.868Z,25.11
2019-05-03T07:00:35.125Z,25.12
2019-05-03T07:01:34.552Z,25.09
2019-05-03T07:02:35.515Z,25.20
2019-05-03T07:03:35.405Z,25.20
2019-05-03T07:04:34.720Z,25.16
2019-05-03T07:05:35.466Z,25.16
2019-05-03T07:06:40.096Z,25.23
2019-05-03T07:07:35.465Z,25.27
2019-05-03T07:08:34.520Z,25.29
2019-05-03T07:09:35.413Z,25.30
2019-05-03T07:10:35.279Z,25.24
2019-05-03T07:11:34.849Z,25.36
2019-05-03T07:12:35.396Z,25.42
2019-05-03T07:13:34.649Z,25.30
2019-05-03T07:14:34.948Z,25.44
2019-05-03T07:15:35.134Z,25.51
2019-05-03T07:16:35.333Z,25.54
2019-05-03T07:17:35.023Z,25.59
2019-05-03T07:18:35.177Z,25.49
2019-05-03T07:19:35.396Z,25.54
2019-05-03T07:20:35.322Z,25.46
2019-05-03T07:21:35.415Z,25.53
2019-05-03T07:22:44.453Z,25.56
2019-05-03T07:23:34.968Z,25.51
2019-05-03T07:24:37.853Z,25.54
2019-05-03T07:25:35.003Z,25.54
2019-05-03T07:26:34.400Z,25.60
2019-05-03T07:27:34.984Z,25.63
2019-05-03T07:28:46.334Z,25.56
2019-05-03T07:29:36.609Z,25.66
2019-05-03T07:30:35.222Z,25.61
2019-05-03T07:31:35.364Z,25.67
2019-05-03T07:32:34.773Z,25.64
2019-05-03T07:33:34.678Z,25.67
2019-05-03T07:34:35.145Z,25.71
2019-05-03T07:35:35.362Z,25.79
2019-05-03T07:36:35.580Z,25.69
2019-05-03T07:37:34.884Z,25.71
2019-05-03T07:38:34.984Z,25.71
2019-05-03T07:39:34.926Z,25.74
2019-05-03T07:40:35.317Z,25.64
2019-05-03T07:41:35.627Z,25.69
2019-05-03T07:42:34.693Z,25.69
2019-05-03T07:43:35.877Z,25.69
2019-05-03T07:44:34.748Z,25.72
2019-05-03T07:45:35.483Z,25.79
2019-05-03T07:46:34.917Z,25.72
2019-05-03T07:47:34.865Z,25.72
2019-05-03T07:48:35.339Z,25.74
2019-05-03T07:49:35.716Z,25.71
2019-05-03T07:50:35.616Z,25.71
2019-05-03T07:51:34.829Z,25.69
2019-05-03T07:52:34.830Z,25.69
2019-05-03T07:53:45.115Z,25.72
2019-05-03T07:54:34.835Z,25.75
2019-05-03T07:55:35.265Z,25.81
2019-05-03T07:56:35.502Z,25.81
2019-05-03T07:57:35.533Z,25.67
2019-05-03T07:58:35.137Z,25.67
2019-05-03T07:59:35.502Z,25.75
2019-05-03T08:00:34.343Z,25.71
2019-05-03T08:01:35.584Z,25.72
2019-05-03T08:02:35.585Z,25.63
2019-05-03T08:03:34.833Z,25.66
2019-05-03T08:04:35.656Z,25.57
2019-05-03T08:05:34.941Z,25.53
2019-05-03T08:06:34.652Z,25.51
2019-05-03T08:07:35.478Z,25.51
2019-05-03T08:08:35.361Z,25.44
2019-05-03T08:09:35.019Z,25.41
2019-05-03T08:10:34.497Z,25.49
2019-05-03T08:11:35.177Z,25.44
2019-05-03T08:12:34.897Z,25.41
2019-05-03T08:13:35.478Z,25.36
2019-05-03T08:14:35.511Z,25.31
2019-05-03T08:15:34.776Z,25.31
2019-05-03T08:16:35.245Z,25.46
2019-05-03T08:17:34.675Z,25.35
2019-05-03T08:18:35.406Z,25.30
2019-05-03T08:19:35.533Z,25.36
2019-05-03T08:20:35.060Z,25.35
2019-05-03T08:21:37.447Z,25.26
2019-05-03T08:22:34.568Z,25.24
2019-05-03T08:23:35.264Z,25.31
2019-05-03T08:24:45.273Z,25.31
2019-05-03T08:25:35.291Z,25.31
2019-05-03T08:26:35.012Z,25.31
2019-05-03T08:27:35.303Z,25.24
2019-05-03T08:28:34.663Z,25.27
2019-05-03T08:29:34.993Z,25.30
2019-05-03T08:30:35.296Z,25.27
2019-05-03T08:31:35.262Z,25.22
2019-05-03T08:32:35.149Z,25.26
2019-05-03T08:33:35.414Z,25.31
2019-05-03T08:34:34.776Z,25.26
2019-05-03T08:35:35.430Z,25.30
2019-05-03T08:36:34.907Z,25.29
2019-05-03T08:37:34.946Z,25.26
2019-05-03T08:38:34.525Z,25.26
2019-05-03T08:39:35.402Z,25.34
2019-05-03T08:40:34.986Z,25.22
2019-05-03T08:41:35.089Z,25.27
2019-05-03T08:42:34.878Z,25.26
2019-05-03T08:43:33.176Z,25.30
2019-05-03T08:44:35.207Z,25.24
2019-05-03T08:45:34.699Z,25.41
2019-05-03T08:46:35.456Z,25.34
2019-05-03T08:47:34.484Z,25.39
2019-05-03T08:48:35.272Z,25.31
2019-05-03T08:49:34.792Z,25.36
2019-05-03T08:50:34.762Z,25.36
2019-05-03T08:51:35.107Z,25.42
2019-05-03T08:52:34.810Z,25.35
2019-05-03T08:53:35.601Z,25.39
2019-05-03T08:54:34.720Z,25.30
2019-05-03T08:55:44.817Z,25.35
2019-05-03T08:56:34.772Z,25.42
2019-05-03T08:57:35.296Z,25.44
2019-05-03T08:58:34.843Z,25.48
2019-05-03T08:59:33.015Z,25.49
2019-05-03T09:00:33.001Z,25.45
2019-05-03T09:01:32.988Z,25.48
2019-05-03T09:02:34.583Z,25.48
2019-05-03T09:03:36.266Z,25.49
2019-05-03T09:04:37.842Z,25.41
2019-05-03T09:05:36.031Z,25.46
2019-05-03T09:06:32.936Z,25.46
2019-05-03T09:07:32.944Z,25.49
2019-05-03T09:08:35.156Z,25.53
2019-05-03T09:09:34.877Z,25.46
2019-05-03T09:10:35.094Z,25.56
2019-05-03T09:11:49.716Z,25.57
2019-05-03T09:12:34.303Z,25.60
2019-05-03T09:13:34.303Z,25.61
2019-05-03T09:14:42.458Z,25.59
2019-05-03T09:15:35.120Z,25.57
2019-05-03T09:16:32.842Z,25.63
2019-05-03T09:17:33.443Z,25.61
2019-05-03T09:18:34.591Z,25.64
2019-05-03T09:19:34.566Z,25.67
2019-05-03T09:20:32.785Z,25.71
2019-05-03T09:21:34.604Z,25.67
2019-05-03T09:22:34.764Z,25.67
2019-05-03T09:23:32.753Z,25.63
2019-05-03T09:24:32.825Z,25.69
2019-05-03T09:25:32.750Z,25.69
2019-05-03T09:26:42.636Z,25.75
2019-05-03T09:27:34.407Z,25.67
2019-05-03T09:28:34.751Z,25.79
2019-05-03T09:29:42.999Z,25.76
2019-05-03T09:30:35.542Z,25.82
2019-05-03T09:31:32.679Z,25.81
2019-05-03T09:32:32.660Z,25.76
2019-05-03T09:33:32.650Z,25.78
2019-05-03T09:34:32.639Z,25.83
2019-05-03T09:35:35.276Z,25.83
2019-05-03T09:36:34.460Z,25.78
2019-05-03T09:37:32.611Z,25.83
2019-05-03T09:38:32.597Z,25.79
2019-05-03T09:39:32.586Z,25.76
2019-05-03T09:40:32.576Z,25.78
2019-05-03T09:41:34.610Z,25.76
2019-05-03T09:42:32.564Z,25.69
2019-05-03T09:43:32.540Z,25.69
2019-05-03T09:44:32.533Z,25.75
2019-05-03T09:45:32.521Z,25.66
2019-05-03T09:46:32.515Z,25.76
2019-05-03T09:47:32.508Z,25.71
2019-05-03T09:48:34.468Z,25.67
2019-05-03T09:49:34.585Z,25.69
2019-05-03T09:50:32.487Z,25.69
2019-05-03T09:51:32.471Z,25.69
2019-05-03T09:52:35.324Z,25.63
2019-05-03T09:53:32.436Z,25.61
2019-05-03T09:54:34.616Z,25.61
2019-05-03T09:55:32.415Z,25.57
2019-05-03T09:56:34.545Z,25.60
2019-05-03T09:57:44.498Z,25.49
2019-05-03T09:58:35.277Z,25.54
2019-05-03T09:59:35.022Z,25.54
2019-05-03T10:00:32.386Z,25.54
2019-05-03T10:01:34.552Z,25.54
2019-05-03T10:02:32.345Z,25.48
2019-05-03T10:03:32.862Z,25.48
2019-05-03T10:04:32.326Z,25.53
2019-05-03T10:05:34.913Z,25.57
2019-05-03T10:06:32.300Z,25.49
2019-05-03T10:07:32.324Z,25.49
2019-05-03T10:08:32.281Z,25.51
2019-05-03T10:09:32.277Z,25.56
2019-05-03T10:10:32.811Z,25.53
2019-05-03T10:11:32.246Z,25.51
2019-05-03T10:12:32.291Z,25.49
2019-05-03T10:13:32.225Z,25.49
2019-05-03T10:14:32.287Z,25.44
2019-05-03T10:15:32.209Z,25.45
2019-05-03T10:16:32.195Z,25.48
2019-05-03T10:17:32.206Z,25.49
2019-05-03T10:18:32.170Z,25.51
2019-05-03T10:19:37.635Z,25.46
2019-05-03T10:20:34.862Z,25.49
2019-05-03T10:21:32.182Z,25.45
2019-05-03T10:22:32.143Z,25.51
2019-05-03T10:23:32.121Z,25.49
2019-05-03T10:24:32.109Z,25.46
2019-05-03T10:25:32.099Z,25.54
2019-05-03T10:26:32.087Z,25.48
2019-05-03T10:27:32.116Z,25.51
2019-05-03T10:28:42.541Z,25.51
2019-05-03T10:29:32.057Z,25.57
2019-05-03T10:30:32.045Z,25.51
2019-05-03T10:31:32.034Z,25.56
2019-05-03T10:32:32.026Z,25.53
2019-05-03T10:33:32.030Z,25.56
2019-05-03T10:34:32.003Z,25.51
2019-05-03T10:35:31.993Z,25.57
2019-05-03T10:36:31.983Z,25.56
2019-05-03T10:37:31.969Z,25.56
2019-05-03T10:38:31.960Z,25.54
2019-05-03T10:39:31.993Z,25.59
2019-05-03T10:40:31.938Z,25.53
2019-05-03T10:41:31.938Z,25.51
2019-05-03T10:42:31.916Z,25.53
2019-05-03T10:43:31.906Z,25.59
2019-05-03T10:44:31.899Z,25.56
2019-05-03T10:45:31.896Z,25.54
2019-05-03T10:46:31.877Z,25.57
2019-05-03T10:47:31.865Z,25.53
2019-05-03T10:48:31.855Z,25.54
2019-05-03T10:49:31.844Z,25.53
2019-05-03T10:50:31.877Z,25.48
2019-05-03T10:51:31.823Z,25.48
2019-05-03T10:52:31.813Z,25.51
2019-05-03T10:53:31.807Z,25.49
2019-05-03T10:54:31.796Z,25.48
2019-05-03T10:55:31.785Z,25.51
2019-05-03T10:56:31.810Z,25.51
2019-05-03T10:57:31.789Z,25.46
2019-05-03T10:58:31.749Z,25.49
2019-05-03T10:59:41.725Z,25.51
2019-05-03T11:00:45.170Z,25.46
2019-05-03T11:01:32.726Z,25.44
2019-05-03T11:02:31.710Z,25.54
2019-05-03T11:03:31.701Z,25.42
2019-05-03T11:04:31.688Z,25.46
2019-05-03T11:05:31.695Z,25.44
2019-05-03T11:06:31.721Z,25.48
2019-05-03T11:07:31.658Z,25.45
2019-05-03T11:08:31.657Z,25.45
2019-05-03T11:09:47.256Z,25.30
2019-05-03T11:10:32.623Z,25.36
2019-05-03T11:11:31.614Z,25.34
2019-05-03T11:12:31.647Z,25.34
2019-05-03T11:13:31.596Z,25.39
2019-05-03T11:14:31.604Z,25.30
2019-05-03T11:15:31.571Z,25.45
2019-05-03T11:16:31.562Z,25.34
2019-05-03T11:17:31.549Z,25.35
2019-05-03T11:18:31.580Z,25.31
2019-05-03T11:19:31.531Z,25.23
2019-05-03T11:20:32.091Z,25.34
2019-05-03T11:21:31.504Z,25.27
2019-05-03T11:22:31.494Z,25.24
2019-05-03T11:23:31.487Z,25.29
2019-05-03T11:24:31.517Z,25.24
2019-05-03T11:25:31.467Z,25.26
2019-05-03T11:26:31.457Z,25.24
2019-05-03T11:27:31.442Z,25.29
2019-05-03T11:28:31.430Z,25.30
2019-05-03T11:29:31.421Z,25.23
2019-05-03T11:30:53.148Z,25.30
2019-05-03T11:31:32.398Z,25.27
2019-05-03T11:32:31.390Z,25.30
2019-05-03T11:33:31.375Z,25.35
2019-05-03T11:34:31.365Z,25.27
2019-05-03T11:35:31.379Z,25.29
2019-05-03T11:36:31.860Z,25.29
2019-05-03T11:37:31.337Z,25.20
2019-05-03T11:38:31.324Z,25.24
2019-05-03T11:39:31.331Z,25.35
2019-05-03T11:40:31.305Z,25.29
2019-05-03T11:41:32.839Z,25.24
2019-05-03T11:42:31.303Z,25.30
2019-05-03T11:43:31.274Z,25.22
2019-05-03T11:44:31.263Z,25.24
2019-05-03T11:45:31.255Z,25.24
2019-05-03T11:46:31.242Z,25.24
2019-05-03T11:47:31.231Z,25.29
2019-05-03T11:48:31.263Z,25.20
2019-05-03T11:49:31.236Z,25.26
2019-05-03T11:50:31.200Z,25.19
2019-05-03T11:51:31.189Z,25.24
2019-05-03T11:52:31.180Z,25.19
2019-05-03T11:53:31.171Z,25.20
2019-05-03T11:54:31.200Z,25.22
2019-05-03T11:55:31.144Z,25.22
2019-05-03T11:56:31.134Z,25.19
2019-05-03T11:57:31.178Z,25.26
2019-05-03T11:58:31.114Z,25.23
2019-05-03T11:59:31.103Z,25.16
2019-05-03T12:00:31.095Z,25.16
2019-05-03T12:01:41.458Z,25.14
2019-05-03T12:02:31.073Z,25.16
2019-05-03T12:03:31.056Z,25.16
2019-05-03T12:04:31.241Z,25.16
2019-05-03T12:05:31.049Z,25.11
2019-05-03T12:06:31.032Z,25.24
2019-05-03T12:07:38.918Z,25.11
2019-05-03T12:08:32.032Z,25.12
2019-05-03T12:09:30.991Z,25.20
2019-05-03T12:10:48.530Z,25.12
2019-05-03T12:11:31.986Z,25.12
2019-05-03T12:12:30.968Z,25.14
2019-05-03T12:13:30.958Z,25.16
2019-05-03T12:14:30.938Z,25.12
2019-05-03T12:15:30.935Z,25.11
2019-05-03T12:17:07.748Z,25.16
2019-05-03T12:17:32.117Z,25.09
2019-05-03T12:18:44.793Z,25.07
2019-05-03T12:19:32.455Z,25.11
2019-05-03T12:20:32.125Z,25.07
2019-05-03T12:21:31.863Z,25.05
2019-05-03T12:22:31.507Z,25.05
2019-05-03T12:23:31.818Z,25.09
2019-05-03T12:24:31.358Z,25.12
2019-05-03T12:25:31.249Z,25.11
2019-05-03T12:26:41.544Z,25.09
2019-05-03T12:27:31.845Z,25.11
2019-05-03T12:28:30.810Z,25.12
2019-05-03T12:29:30.784Z,25.05
2019-05-03T12:30:30.777Z,24.99
2019-05-03T12:31:38.924Z,25.09
2019-05-03T12:33:45.947Z,25.09
2019-05-03T12:34:44.960Z,25.02
2019-05-03T12:35:46.163Z,25.04
2019-05-03T12:36:44.912Z,25.08
2019-05-03T12:37:44.907Z,25.09
2019-05-03T12:38:44.891Z,25.09
2019-05-03T12:39:44.887Z,25.05
2019-05-03T12:40:45.545Z,25.05
2019-05-03T12:41:47.909Z,25.02
2019-05-03T12:42:45.482Z,25.02
2019-05-03T12:43:44.838Z,24.99
2019-05-03T12:44:46.058Z,25.08
2019-05-03T12:45:44.816Z,25.01
2019-05-03T12:46:45.048Z,25.04
2019-05-03T12:47:45.264Z,25.02
2019-05-03T12:48:44.913Z,25.09
2019-05-03T12:49:45.197Z,25.12
2019-05-03T12:50:46.450Z,25.04
2019-05-03T12:51:45.272Z,25.04
2019-05-03T12:52:50.280Z,25.11
2019-05-03T12:53:45.737Z,25.04